sensor_id;sensor_type;location;lat;lon;timestamp;pressure;altitude;pressure_sealevel;temperature
79148;BMP280;68562;51.600;6.524;2024-03-07T00:00:00;1024.3;;;12.3
79148;BMP280;68562;51.600;6.524;2024-03-07T00:05:00;1024.3;;;12.2
79148;BMP280;68562;51.600;6.524;2024-03-07T00:10:01;1024.3;;;12.2
79148;BMP280;68562;51.600;6.524;2024-03-07T00:15:00;1024.4;;;12.1
79148;BMP280;68562;51.600;6.524;2024-03-07T00:20:00;1024.4;;;12.1
79148;BMP280;68562;51.600;6.524;2024-03-07T00:25:00;1024.4;;;12.1
79148;BMP280;68562;51.600;6.524;2024-03-07T00:30:00;1024.4;;;12.1
79148;BMP280;68562;51.600;6.524;2024-03-07T00:35:00;1024.5;;;12.0
79148;BMP280;68562;51.600;6.524;2024-03-07T00:40:00;1024.5;;;12.0
79148;BMP280;68562;51.600;6.524;2024-03-07T00:45:00;1024.4;;;11.9
79148;BMP280;68562;51.600;6.524;2024-03-07T00:50:00;1024.5;;;11.9
79148;BMP280;68562;51.600;6.524;2024-03-07T00:55:00;1024.4;;;11.8
79148;BMP280;68562;51.600;6.524;2024-03-07T01:00:00;1024.4;;;11.8
79148;BMP280;68562;51.600;6.524;2024-03-07T01:05:03;1024.3;;;11.7
79148;BMP280;68562;51.600;6.524;2024-03-07T01:10:01;1024.4;;;11.7
79148;BMP280;68562;51.600;6.524;2024-03-07T01:15:00;1024.3;;;11.6
79148;BMP280;68562;51.600;6.524;2024-03-07T01:20:00;1024.3;;;11.6
79148;BMP280;68562;51.600;6.524;2024-03-07T01:25:01;1024.3;;;11.4
79148;BMP280;68562;51.600;6.524;2024-03-07T01:30:00;1024.3;;;11.4
79148;BMP280;68562;51.600;6.524;2024-03-07T01:35:00;1024.2;;;11.3
79148;BMP280;68562;51.600;6.524;2024-03-07T01:40:02;1024.2;;;11.3
79148;BMP280;68562;51.600;6.524;2024-03-07T01:45:00;1024.1;;;11.1
79148;BMP280;68562;51.600;6.524;2024-03-07T01:50:00;1024.1;;;11.1
79148;BMP280;68562;51.600;6.524;2024-03-07T01:55:01;1024.1;;;11.0
79148;BMP280;68562;51.600;6.524;2024-03-07T02:00:00;1024.1;;;10.9
79148;BMP280;68562;51.600;6.524;2024-03-07T02:05:00;1024.0;;;10.8
79148;BMP280;68562;51.600;6.524;2024-03-07T02:10:01;1024.0;;;10.8
79148;BMP280;68562;51.600;6.524;2024-03-07T02:15:00;1024.0;;;10.8
79148;BMP280;68562;51.600;6.524;2024-03-07T02:20:00;1023.9;;;10.9
79148;BMP280;68562;51.600;6.524;2024-03-07T02:25:00;1023.9;;;10.9
79148;BMP280;68562;51.600;6.524;2024-03-07T02:30:00;1023.8;;;10.9
79148;BMP280;68562;51.600;6.524;2024-03-07T02:35:00;1023.8;;;10.9
79148;BMP280;68562;51.600;6.524;2024-03-07T02:40:00;1023.7;;;10.9
79148;BMP280;68562;51.600;6.524;2024-03-07T02:45:00;1023.7;;;10.9
79148;BMP280;68562;51.600;6.524;2024-03-07T02:50:00;1023.7;;;10.8
79148;BMP280;68562;51.600;6.524;2024-03-07T02:55:00;1023.7;;;10.8
79148;BMP280;68562;51.600;6.524;2024-03-07T03:00:00;1023.7;;;10.8
79148;BMP280;68562;51.600;6.524;2024-03-07T03:05:00;1023.7;;;10.8
79148;BMP280;68562;51.600;6.524;2024-03-07T03:10:00;1023.6;;;10.7
79148;BMP280;68562;51.600;6.524;2024-03-07T03:15:00;1023.6;;;10.7
79148;BMP280;68562;51.600;6.524;2024-03-07T03:20:00;1023.5;;;10.6
79148;BMP280;68562;51.600;6.524;2024-03-07T03:25:03;1023.6;;;10.6
79148;BMP280;68562;51.600;6.524;2024-03-07T03:30:00;1023.6;;;10.5
79148;BMP280;68562;51.600;6.524;2024-03-07T03:35:00;1023.6;;;10.6
79148;BMP280;68562;51.600;6.524;2024-03-07T03:40:00;1023.5;;;10.5
79148;BMP280;68562;51.600;6.524;2024-03-07T03:45:00;1023.5;;;10.5
79148;BMP280;68562;51.600;6.524;2024-03-07T03:50:00;1023.5;;;10.4
79148;BMP280;68562;51.600;6.524;2024-03-07T03:55:03;1023.4;;;10.4
79148;BMP280;68562;51.600;6.524;2024-03-07T04:00:00;1023.4;;;10.4
79148;BMP280;68562;51.600;6.524;2024-03-07T04:05:00;1023.4;;;10.4
79148;BMP280;68562;51.600;6.524;2024-03-07T04:10:00;1023.3;;;10.3
79148;BMP280;68562;51.600;6.524;2024-03-07T04:15:00;1023.3;;;10.3
79148;BMP280;68562;51.600;6.524;2024-03-07T04:20:00;1023.3;;;10.2
79148;BMP280;68562;51.600;6.524;2024-03-07T04:25:00;1023.4;;;10.2
79148;BMP280;68562;51.600;6.524;2024-03-07T04:30:00;1023.3;;;10.1
79148;BMP280;68562;51.600;6.524;2024-03-07T04:35:00;1023.3;;;10.2
79148;BMP280;68562;51.600;6.524;2024-03-07T04:40:00;1023.3;;;10.1
79148;BMP280;68562;51.600;6.524;2024-03-07T04:45:00;1023.3;;;10.1
79148;BMP280;68562;51.600;6.524;2024-03-07T04:50:00;1023.4;;;10.0
79148;BMP280;68562;51.600;6.524;2024-03-07T04:55:00;1023.3;;;10.0
79148;BMP280;68562;51.600;6.524;2024-03-07T05:00:00;1023.3;;;10.0
79148;BMP280;68562;51.600;6.524;2024-03-07T05:05:00;1023.3;;;10.0
79148;BMP280;68562;51.600;6.524;2024-03-07T05:10:01;1023.4;;;9.9
79148;BMP280;68562;51.600;6.524;2024-03-07T05:15:00;1023.4;;;9.9
79148;BMP280;68562;51.600;6.524;2024-03-07T05:20:00;1023.3;;;9.8
79148;BMP280;68562;51.600;6.524;2024-03-07T05:25:02;1023.3;;;9.8
79148;BMP280;68562;51.600;6.524;2024-03-07T05:30:00;1023.3;;;9.8
79148;BMP280;68562;51.600;6.524;2024-03-07T05:35:00;1023.3;;;9.7
79148;BMP280;68562;51.600;6.524;2024-03-07T05:40:01;1023.3;;;9.7
79148;BMP280;68562;51.600;6.524;2024-03-07T05:45:00;1023.3;;;9.7
79148;BMP280;68562;51.600;6.524;2024-03-07T05:50:00;1023.3;;;9.7
79148;BMP280;68562;51.600;6.524;2024-03-07T05:55:01;1023.3;;;9.6
79148;BMP280;68562;51.600;6.524;2024-03-07T06:00:00;1023.3;;;9.6
79148;BMP280;68562;51.600;6.524;2024-03-07T06:05:00;1023.4;;;9.6
79148;BMP280;68562;51.600;6.524;2024-03-07T06:10:00;1023.4;;;9.6
79148;BMP280;68562;51.600;6.524;2024-03-07T06:15:00;1023.4;;;9.5
79148;BMP280;68562;51.600;6.524;2024-03-07T06:20:00;1023.4;;;9.5
79148;BMP280;68562;51.600;6.524;2024-03-07T06:25:00;1023.4;;;9.5
79148;BMP280;68562;51.600;6.524;2024-03-07T06:30:00;1023.4;;;9.5
79148;BMP280;68562;51.600;6.524;2024-03-07T06:35:00;1023.4;;;9.5
79148;BMP280;68562;51.600;6.524;2024-03-07T06:40:00;1023.4;;;9.5
79148;BMP280;68562;51.600;6.524;2024-03-07T06:45:00;1023.5;;;9.6
79148;BMP280;68562;51.600;6.524;2024-03-07T06:50:00;1023.4;;;9.8
79148;BMP280;68562;51.600;6.524;2024-03-07T06:55:01;1023.4;;;10.1
79148;BMP280;68562;51.600;6.524;2024-03-07T07:00:00;1023.4;;;10.3
79148;BMP280;68562;51.600;6.524;2024-03-07T07:05:00;1023.4;;;10.6
79148;BMP280;68562;51.600;6.524;2024-03-07T07:10:01;1023.4;;;10.9
79148;BMP280;68562;51.600;6.524;2024-03-07T07:15:00;1023.4;;;11.2
79148;BMP280;68562;51.600;6.524;2024-03-07T07:20:00;1023.4;;;11.6
79148;BMP280;68562;51.600;6.524;2024-03-07T07:25:00;1023.4;;;11.9
79148;BMP280;68562;51.600;6.524;2024-03-07T07:30:00;1023.4;;;12.3
79148;BMP280;68562;51.600;6.524;2024-03-07T07:35:00;1023.4;;;12.8
79148;BMP280;68562;51.600;6.524;2024-03-07T07:40:01;1023.4;;;13.2
79148;BMP280;68562;51.600;6.524;2024-03-07T07:45:00;1023.3;;;13.6
79148;BMP280;68562;51.600;6.524;2024-03-07T07:50:00;1023.3;;;14.1
79148;BMP280;68562;51.600;6.524;2024-03-07T07:55:02;1023.3;;;14.5
79148;BMP280;68562;51.600;6.524;2024-03-07T08:00:00;1023.2;;;15.0
79148;BMP280;68562;51.600;6.524;2024-03-07T08:05:00;1023.2;;;15.3
79148;BMP280;68562;51.600;6.524;2024-03-07T08:10:00;1023.3;;;15.7
79148;BMP280;68562;51.600;6.524;2024-03-07T08:15:00;1023.2;;;15.9
79148;BMP280;68562;51.600;6.524;2024-03-07T08:20:00;1023.2;;;16.3
79148;BMP280;68562;51.600;6.524;2024-03-07T08:25:00;1023.2;;;16.6
79148;BMP280;68562;51.600;6.524;2024-03-07T08:30:00;1023.2;;;17.0
79148;BMP280;68562;51.600;6.524;2024-03-07T08:35:00;1023.2;;;17.4
79148;BMP280;68562;51.600;6.524;2024-03-07T08:40:00;1023.2;;;17.8
79148;BMP280;68562;51.600;6.524;2024-03-07T08:45:00;1023.2;;;18.2
79148;BMP280;68562;51.600;6.524;2024-03-07T08:50:01;1023.1;;;18.6
79148;BMP280;68562;51.600;6.524;2024-03-07T08:55:01;1023.1;;;19.0
79148;BMP280;68562;51.600;6.524;2024-03-07T09:00:00;1023.0;;;19.6
79148;BMP280;68562;51.600;6.524;2024-03-07T09:05:00;1023.1;;;19.9
79148;BMP280;68562;51.600;6.524;2024-03-07T09:10:00;1023.0;;;20.0
79148;BMP280;68562;51.600;6.524;2024-03-07T09:15:00;1023.0;;;20.1
79148;BMP280;68562;51.600;6.524;2024-03-07T09:20:00;1023.0;;;20.3
79148;BMP280;68562;51.600;6.524;2024-03-07T09:25:01;1022.9;;;20.5
79148;BMP280;68562;51.600;6.524;2024-03-07T09:30:00;1022.9;;;20.4
79148;BMP280;68562;51.600;6.524;2024-03-07T09:35:00;1022.8;;;20.1
79148;BMP280;68562;51.600;6.524;2024-03-07T09:40:00;1022.9;;;19.5
79148;BMP280;68562;51.600;6.524;2024-03-07T09:45:02;1023.0;;;18.9
79148;BMP280;68562;51.600;6.524;2024-03-07T09:50:01;1022.9;;;18.2
79148;BMP280;68562;51.600;6.524;2024-03-07T09:55:01;1023.0;;;17.8
79148;BMP280;68562;51.600;6.524;2024-03-07T10:00:00;1022.9;;;17.6
79148;BMP280;68562;51.600;6.524;2024-03-07T10:05:00;1023.0;;;17.8
79148;BMP280;68562;51.600;6.524;2024-03-07T10:10:02;1023.0;;;17.9
79148;BMP280;68562;51.600;6.524;2024-03-07T10:15:03;1022.9;;;17.9
79148;BMP280;68562;51.600;6.524;2024-03-07T10:20:00;1022.8;;;17.9
79148;BMP280;68562;51.600;6.524;2024-03-07T10:25:00;1022.8;;;18.1
79148;BMP280;68562;51.600;6.524;2024-03-07T10:30:01;1022.7;;;18.3
79148;BMP280;68562;51.600;6.524;2024-03-07T10:35:00;1022.7;;;18.9
79148;BMP280;68562;51.600;6.524;2024-03-07T10:40:00;1022.6;;;20.0
79148;BMP280;68562;51.600;6.524;2024-03-07T10:45:03;1022.5;;;21.0
79148;BMP280;68562;51.600;6.524;2024-03-07T10:50:06;1022.4;;;21.6
79148;BMP280;68562;51.600;6.524;2024-03-07T10:55:08;1022.4;;;22.0
79148;BMP280;68562;51.600;6.524;2024-03-07T11:00:03;1022.4;;;22.1
79148;BMP280;68562;51.600;6.524;2024-03-07T11:05:00;1022.4;;;22.2
79148;BMP280;68562;51.600;6.524;2024-03-07T11:10:01;1022.2;;;22.2
79148;BMP280;68562;51.600;6.524;2024-03-07T11:15:01;1022.3;;;22.2
79148;BMP280;68562;51.600;6.524;2024-03-07T11:25:01;1022.2;;;21.9
79148;BMP280;68562;51.600;6.524;2024-03-07T11:30:04;1022.2;;;21.9
79148;BMP280;68562;51.600;6.524;2024-03-07T11:35:04;1022.1;;;22.2
79148;BMP280;68562;51.600;6.524;2024-03-07T11:40:00;1022.1;;;22.3
79148;BMP280;68562;51.600;6.524;2024-03-07T11:45:01;1022.1;;;21.9
79148;BMP280;68562;51.600;6.524;2024-03-07T11:50:00;1022.0;;;21.7
79148;BMP280;68562;51.600;6.524;2024-03-07T11:55:01;1021.9;;;21.9
79148;BMP280;68562;51.600;6.524;2024-03-07T12:00:01;1021.8;;;22.3
79148;BMP280;68562;51.600;6.524;2024-03-07T12:05:00;1021.7;;;22.9
79148;BMP280;68562;51.600;6.524;2024-03-07T12:10:00;1021.7;;;23.7
79148;BMP280;68562;51.600;6.524;2024-03-07T12:15:00;1021.6;;;24.5
79148;BMP280;68562;51.600;6.524;2024-03-07T12:20:00;1021.6;;;25.3
79148;BMP280;68562;51.600;6.524;2024-03-07T12:25:01;1021.5;;;25.8
79148;BMP280;68562;51.600;6.524;2024-03-07T12:30:00;1021.4;;;25.8
79148;BMP280;68562;51.600;6.524;2024-03-07T12:35:00;1021.4;;;25.5
79148;BMP280;68562;51.600;6.524;2024-03-07T12:45:00;1021.3;;;25.9
79148;BMP280;68562;51.600;6.524;2024-03-07T12:50:00;1021.2;;;25.6
79148;BMP280;68562;51.600;6.524;2024-03-07T12:55:01;1021.1;;;24.9
79148;BMP280;68562;51.600;6.524;2024-03-07T13:00:00;1021.1;;;25.0
79148;BMP280;68562;51.600;6.524;2024-03-07T13:05:00;1021.1;;;25.4
79148;BMP280;68562;51.600;6.524;2024-03-07T13:10:00;1021.0;;;25.8
79148;BMP280;68562;51.600;6.524;2024-03-07T13:15:00;1020.8;;;26.2
79148;BMP280;68562;51.600;6.524;2024-03-07T13:20:00;1020.8;;;26.7
79148;BMP280;68562;51.600;6.524;2024-03-07T13:25:01;1020.8;;;27.3
79148;BMP280;68562;51.600;6.524;2024-03-07T13:30:00;1020.7;;;27.8
79148;BMP280;68562;51.600;6.524;2024-03-07T13:35:00;1020.7;;;27.6
79148;BMP280;68562;51.600;6.524;2024-03-07T13:40:00;1020.5;;;27.3
79148;BMP280;68562;51.600;6.524;2024-03-07T13:45:00;1020.6;;;26.8
79148;BMP280;68562;51.600;6.524;2024-03-07T13:50:00;1020.5;;;26.0
79148;BMP280;68562;51.600;6.524;2024-03-07T13:55:02;1020.4;;;25.0
79148;BMP280;68562;51.600;6.524;2024-03-07T14:00:12;1020.4;;;24.1
79148;BMP280;68562;51.600;6.524;2024-03-07T14:35:03;1020.1;;;19.9
79148;BMP280;68562;51.600;6.524;2024-03-07T14:40:07;1020.1;;;19.5
79148;BMP280;68562;51.600;6.524;2024-03-07T14:45:00;1020.1;;;19.0
79148;BMP280;68562;51.600;6.524;2024-03-07T14:50:00;1020.0;;;18.8
79148;BMP280;68562;51.600;6.524;2024-03-07T14:55:00;1020.0;;;18.5
79148;BMP280;68562;51.600;6.524;2024-03-07T15:00:00;1020.0;;;18.3
79148;BMP280;68562;51.600;6.524;2024-03-07T15:05:00;1020.0;;;17.9
79148;BMP280;68562;51.600;6.524;2024-03-07T15:10:02;1019.9;;;17.8
79148;BMP280;68562;51.600;6.524;2024-03-07T15:15:00;1019.9;;;18.1
79148;BMP280;68562;51.600;6.524;2024-03-07T15:20:00;1019.7;;;18.7
79148;BMP280;68562;51.600;6.524;2024-03-07T15:25:03;1019.7;;;18.8
79148;BMP280;68562;51.600;6.524;2024-03-07T15:30:00;1019.7;;;18.9
79148;BMP280;68562;51.600;6.524;2024-03-07T15:35:00;1019.6;;;19.2
79148;BMP280;68562;51.600;6.524;2024-03-07T15:40:04;1019.5;;;19.7
79148;BMP280;68562;51.600;6.524;2024-03-07T15:45:00;1019.5;;;20.5
79148;BMP280;68562;51.600;6.524;2024-03-07T15:50:00;1019.2;;;20.6
79148;BMP280;68562;51.600;6.524;2024-03-07T15:55:00;1019.3;;;20.5
79148;BMP280;68562;51.600;6.524;2024-03-07T16:00:01;1019.3;;;20.8
79148;BMP280;68562;51.600;6.524;2024-03-07T16:05:00;1019.2;;;20.9
79148;BMP280;68562;51.600;6.524;2024-03-07T16:10:00;1019.2;;;20.7
79148;BMP280;68562;51.600;6.524;2024-03-07T16:15:00;1019.2;;;20.6
79148;BMP280;68562;51.600;6.524;2024-03-07T16:20:00;1019.3;;;20.6
79148;BMP280;68562;51.600;6.524;2024-03-07T16:25:00;1019.1;;;20.5
79148;BMP280;68562;51.600;6.524;2024-03-07T16:30:00;1019.2;;;20.5
79148;BMP280;68562;51.600;6.524;2024-03-07T16:35:00;1019.1;;;20.4
79148;BMP280;68562;51.600;6.524;2024-03-07T16:40:00;1019.1;;;20.3
79148;BMP280;68562;51.600;6.524;2024-03-07T16:45:00;1019.1;;;20.1
79148;BMP280;68562;51.600;6.524;2024-03-07T16:50:00;1019.1;;;19.9
79148;BMP280;68562;51.600;6.524;2024-03-07T16:55:00;1019.1;;;19.6
79148;BMP280;68562;51.600;6.524;2024-03-07T17:00:03;1019.1;;;19.1
79148;BMP280;68562;51.600;6.524;2024-03-07T17:05:00;1019.1;;;18.6
79148;BMP280;68562;51.600;6.524;2024-03-07T17:10:00;1019.1;;;18.0
79148;BMP280;68562;51.600;6.524;2024-03-07T17:15:00;1019.1;;;17.6
79148;BMP280;68562;51.600;6.524;2024-03-07T17:20:00;1019.1;;;17.1
79148;BMP280;68562;51.600;6.524;2024-03-07T17:25:00;1019.2;;;16.8
79148;BMP280;68562;51.600;6.524;2024-03-07T17:30:00;1019.2;;;16.4
79148;BMP280;68562;51.600;6.524;2024-03-07T17:35:01;1019.2;;;16.3
79148;BMP280;68562;51.600;6.524;2024-03-07T17:40:00;1019.2;;;16.0
79148;BMP280;68562;51.600;6.524;2024-03-07T17:45:00;1019.2;;;15.8
79148;BMP280;68562;51.600;6.524;2024-03-07T17:50:00;1019.3;;;15.6
79148;BMP280;68562;51.600;6.524;2024-03-07T17:55:00;1019.2;;;15.5
79148;BMP280;68562;51.600;6.524;2024-03-07T18:00:00;1019.3;;;15.3
79148;BMP280;68562;51.600;6.524;2024-03-07T18:05:00;1019.3;;;15.2
79148;BMP280;68562;51.600;6.524;2024-03-07T18:10:00;1019.2;;;15.0
79148;BMP280;68562;51.600;6.524;2024-03-07T18:15:00;1019.2;;;14.9
79148;BMP280;68562;51.600;6.524;2024-03-07T18:20:00;1019.2;;;14.7
79148;BMP280;68562;51.600;6.524;2024-03-07T18:25:00;1019.2;;;14.6
79148;BMP280;68562;51.600;6.524;2024-03-07T18:30:00;1019.2;;;14.5
79148;BMP280;68562;51.600;6.524;2024-03-07T18:35:00;1019.1;;;14.4
79148;BMP280;68562;51.600;6.524;2024-03-07T18:40:02;1019.1;;;14.4
79148;BMP280;68562;51.600;6.524;2024-03-07T18:45:00;1019.2;;;14.3
79148;BMP280;68562;51.600;6.524;2024-03-07T18:50:00;1019.2;;;14.3
79148;BMP280;68562;51.600;6.524;2024-03-07T18:55:02;1019.1;;;14.2
79148;BMP280;68562;51.600;6.524;2024-03-07T19:00:00;1019.0;;;14.1
79148;BMP280;68562;51.600;6.524;2024-03-07T19:05:00;1019.0;;;13.9
79148;BMP280;68562;51.600;6.524;2024-03-07T19:10:01;1019.0;;;13.8
79148;BMP280;68562;51.600;6.524;2024-03-07T19:15:00;1018.9;;;13.7
79148;BMP280;68562;51.600;6.524;2024-03-07T19:20:00;1018.9;;;13.7
79148;BMP280;68562;51.600;6.524;2024-03-07T19:25:02;1018.8;;;13.6
79148;BMP280;68562;51.600;6.524;2024-03-07T19:30:00;1018.8;;;13.5
79148;BMP280;68562;51.600;6.524;2024-03-07T19:35:00;1018.8;;;13.4
79148;BMP280;68562;51.600;6.524;2024-03-07T19:40:01;1018.8;;;13.4
79148;BMP280;68562;51.600;6.524;2024-03-07T19:45:00;1018.8;;;13.3
79148;BMP280;68562;51.600;6.524;2024-03-07T19:50:00;1018.7;;;13.2
79148;BMP280;68562;51.600;6.524;2024-03-07T19:55:00;1018.7;;;13.1
79148;BMP280;68562;51.600;6.524;2024-03-07T20:00:00;1018.7;;;13.1
79148;BMP280;68562;51.600;6.524;2024-03-07T20:05:00;1018.6;;;12.9
79148;BMP280;68562;51.600;6.524;2024-03-07T20:10:01;1018.6;;;12.8
79148;BMP280;68562;51.600;6.524;2024-03-07T20:15:00;1018.6;;;12.6
79148;BMP280;68562;51.600;6.524;2024-03-07T20:20:01;1018.6;;;12.5
79148;BMP280;68562;51.600;6.524;2024-03-07T20:25:00;1018.6;;;12.3
79148;BMP280;68562;51.600;6.524;2024-03-07T20:30:00;1018.5;;;12.3
79148;BMP280;68562;51.600;6.524;2024-03-07T20:35:00;1018.5;;;12.1
79148;BMP280;68562;51.600;6.524;2024-03-07T20:40:00;1018.5;;;12.1
79148;BMP280;68562;51.600;6.524;2024-03-07T20:45:00;1018.5;;;12.0
79148;BMP280;68562;51.600;6.524;2024-03-07T20:50:00;1018.5;;;11.9
79148;BMP280;68562;51.600;6.524;2024-03-07T20:55:01;1018.5;;;11.8
79148;BMP280;68562;51.600;6.524;2024-03-07T21:00:00;1018.5;;;11.8
79148;BMP280;68562;51.600;6.524;2024-03-07T21:05:00;1018.4;;;11.7
79148;BMP280;68562;51.600;6.524;2024-03-07T21:10:00;1018.3;;;11.7
79148;BMP280;68562;51.600;6.524;2024-03-07T21:15:00;1018.4;;;11.5
79148;BMP280;68562;51.600;6.524;2024-03-07T21:20:00;1018.4;;;11.5
79148;BMP280;68562;51.600;6.524;2024-03-07T21:25:00;1018.4;;;11.4
79148;BMP280;68562;51.600;6.524;2024-03-07T21:30:00;1018.3;;;11.3
79148;BMP280;68562;51.600;6.524;2024-03-07T21:35:00;1018.2;;;11.2
79148;BMP280;68562;51.600;6.524;2024-03-07T21:40:00;1018.3;;;11.2
79148;BMP280;68562;51.600;6.524;2024-03-07T21:45:00;1018.2;;;11.1
79148;BMP280;68562;51.600;6.524;2024-03-07T21:50:01;1018.2;;;11.1
79148;BMP280;68562;51.600;6.524;2024-03-07T21:55:00;1018.2;;;11.1
79148;BMP280;68562;51.600;6.524;2024-03-07T22:00:00;1018.1;;;11.1
79148;BMP280;68562;51.600;6.524;2024-03-07T22:05:01;1018.1;;;11.0
79148;BMP280;68562;51.600;6.524;2024-03-07T22:10:00;1018.1;;;11.0
79148;BMP280;68562;51.600;6.524;2024-03-07T22:15:00;1018.0;;;10.9
79148;BMP280;68562;51.600;6.524;2024-03-07T22:20:02;1018.0;;;10.9
79148;BMP280;68562;51.600;6.524;2024-03-07T22:25:00;1018.0;;;10.9
79148;BMP280;68562;51.600;6.524;2024-03-07T22:30:00;1018.0;;;10.8
79148;BMP280;68562;51.600;6.524;2024-03-07T22:35:00;1018.0;;;10.8
79148;BMP280;68562;51.600;6.524;2024-03-07T22:40:00;1017.9;;;10.7
79148;BMP280;68562;51.600;6.524;2024-03-07T22:45:00;1017.9;;;10.7
79148;BMP280;68562;51.600;6.524;2024-03-07T22:50:00;1017.8;;;10.6
79148;BMP280;68562;51.600;6.524;2024-03-07T22:55:00;1017.8;;;10.6
79148;BMP280;68562;51.600;6.524;2024-03-07T23:00:01;1017.7;;;10.5
79148;BMP280;68562;51.600;6.524;2024-03-07T23:05:00;1017.7;;;10.5
79148;BMP280;68562;51.600;6.524;2024-03-07T23:10:00;1017.6;;;10.4
79148;BMP280;68562;51.600;6.524;2024-03-07T23:15:00;1017.6;;;10.4
79148;BMP280;68562;51.600;6.524;2024-03-07T23:20:00;1017.6;;;10.3
79148;BMP280;68562;51.600;6.524;2024-03-07T23:25:00;1017.5;;;10.3
79148;BMP280;68562;51.600;6.524;2024-03-07T23:30:01;1017.5;;;10.2
79148;BMP280;68562;51.600;6.524;2024-03-07T23:35:00;1017.4;;;10.2
79148;BMP280;68562;51.600;6.524;2024-03-07T23:40:00;1017.5;;;10.1
79148;BMP280;68562;51.600;6.524;2024-03-07T23:45:01;1017.5;;;10.1
79148;BMP280;68562;51.600;6.524;2024-03-07T23:50:00;1017.5;;;10.0
79148;BMP280;68562;51.600;6.524;2024-03-07T23:55:00;1017.3;;;10.0
